Time;durP1;ratioP1;P1;durP2;ratioP2;P2;SDS_P1;SDS_P2;PMS_P1;PMS_P2;Temp;Humidity;BMP_temperature;BMP_pressure;BME280_temperature;BME280_humidity;BME280_pressure;Samples;Min_cycle;Max_cycle;Signal;HPM_P1;HPM_P2
2021/07/24 00:01:34;;;;;;;17.90;6.18;;;;;;;;;;5033979;28;20055;-75
2021/07/24 00:04:00;;;;;;;22.10;6.57;;;;;;;;;;5016388;28;20036;-75
2021/07/24 00:06:27;;;;;;;23.05;6.28;;;;;;;;;;5034606;28;20053;-75
2021/07/24 00:08:53;;;;;;;23.15;6.57;;;;;;;;;;5034310;28;20026;-76
2021/07/24 00:11:19;;;;;;;23.48;6.60;;;;;;;;;;5033212;28;20091;-76
2021/07/24 00:13:45;;;;;;;19.70;6.63;;;;;;;;;;5016355;28;20488;-76
2021/07/24 00:16:11;;;;;;;19.00;6.18;;;;;;;;;;5034278;28;20021;-76
2021/07/24 00:18:37;;;;;;;21.50;6.45;;;;;;;;;;5034124;28;20065;-75
2021/07/24 00:21:03;;;;;;;19.60;6.30;;;;;;;;;;5033884;28;20018;-75
2021/07/24 00:23:29;;;;;;;19.35;6.10;;;;;;;;;;5034241;28;20034;-76
2021/07/24 00:25:55;;;;;;;21.67;6.68;;;;;;;;;;5033124;28;20033;-76
2021/07/24 00:28:22;;;;;;;21.73;6.47;;;;;;;;;;5033900;28;20100;-75
2021/07/24 00:30:48;;;;;;;21.35;7.00;;;;;;;;;;5033936;28;20028;-75
2021/07/24 00:33:14;;;;;;;22.00;6.47;;;;;;;;;;5015937;28;20033;-76
2021/07/24 00:35:40;;;;;;;27.95;8.23;;;;;;;;;;5033205;28;20021;-75
2021/07/24 00:38:07;;;;;;;20.40;6.45;;;;;;;;;;5016311;28;20026;-76
2021/07/24 00:40:36;;;;;;;20.95;6.28;;;;;;;;;;5033669;28;20027;-75
2021/07/24 00:43:02;;;;;;;21.20;6.72;;;;;;;;;;5033804;28;20045;-75
2021/07/24 00:45:34;;;;;;;23.88;5.95;;;;;;;;;;5033736;28;20022;-75
2021/07/24 00:48:01;;;;;;;20.98;6.20;;;;;;;;;;5015780;28;20075;-76
2021/07/24 00:50:27;;;;;;;14.68;5.63;;;;;;;;;;5033582;28;20075;-76
2021/07/24 00:52:59;;;;;;;17.58;5.88;;;;;;;;;;5028061;28;20083;-76
2021/07/24 00:55:26;;;;;;;20.27;6.60;;;;;;;;;;5032098;28;20033;-75
2021/07/24 00:57:52;;;;;;;19.05;5.75;;;;;;;;;;5033823;28;20029;-75
2021/07/24 01:00:18;;;;;;;18.52;6.32;;;;;;;;;;5033503;28;20064;-76
2021/07/24 01:02:44;;;;;;;20.08;5.75;;;;;;;;;;5032295;28;20491;-76
2021/07/24 01:05:11;;;;;;;14.98;5.50;;;;;;;;;;5031749;28;20026;-76
2021/07/24 01:07:38;;;;;;;21.15;5.85;;;;;;;;;;5033552;28;20033;-75
2021/07/24 01:10:05;;;;;;;19.63;5.80;;;;;;;;;;5032972;28;20034;-75
2021/07/24 01:12:33;;;;;;;17.80;5.60;;;;;;;;;;5044204;28;20049;-75
2021/07/24 01:14:59;;;;;;;18.45;5.05;;;;;;;;;;5053072;28;20097;-75
2021/07/24 01:17:25;;;;;;;19.10;6.15;;;;;;;;;;5040510;28;20404;-75
2021/07/24 01:19:51;;;;;;;17.77;5.57;;;;;;;;;;5015276;28;20027;-75
2021/07/24 01:22:17;;;;;;;17.55;5.50;;;;;;;;;;5032725;28;20484;-76
2021/07/24 01:24:43;;;;;;;18.85;6.03;;;;;;;;;;5032848;28;20071;-75
2021/07/24 01:27:10;;;;;;;16.23;4.88;;;;;;;;;;5040246;28;20021;-75
2021/07/24 01:29:36;;;;;;;15.98;5.63;;;;;;;;;;5052825;28;20032;-75
2021/07/24 01:32:04;;;;;;;19.45;5.75;;;;;;;;;;5052507;28;20033;-76
2021/07/24 01:34:30;;;;;;;19.92;5.75;;;;;;;;;;5052842;28;20705;-76
2021/07/24 01:36:56;;;;;;;15.25;5.40;;;;;;;;;;5034722;28;20029;-76
2021/07/24 01:39:22;;;;;;;18.73;5.75;;;;;;;;;;5052633;28;20037;-75
2021/07/24 01:41:48;;;;;;;21.55;5.70;;;;;;;;;;5052202;28;20488;-76
2021/07/24 01:44:14;;;;;;;17.25;6.15;;;;;;;;;;5052702;28;20039;-76
2021/07/24 01:46:40;;;;;;;18.02;5.20;;;;;;;;;;5052353;28;20017;-76
2021/07/24 01:54:28;;;;;;;16.73;5.05;;;;;;;;;;5032625;28;20040;-75
2021/07/24 01:56:55;;;;;;;16.92;5.10;;;;;;;;;;5014988;28;20025;-76
2021/07/24 01:59:22;;;;;;;15.30;5.38;;;;;;;;;;5032573;28;20467;-75
2021/07/24 02:01:50;;;;;;;13.23;4.95;;;;;;;;;;5031652;28;20029;-76
2021/07/24 02:04:19;;;;;;;13.65;5.78;;;;;;;;;;5032605;28;20026;-76
2021/07/24 02:06:45;;;;;;;14.10;5.18;;;;;;;;;;5032054;28;20028;-75
2021/07/24 02:09:12;;;;;;;14.00;4.80;;;;;;;;;;5032676;28;20109;-75
2021/07/24 02:11:38;;;;;;;14.15;5.90;;;;;;;;;;5031348;28;20045;-75
2021/07/24 02:14:06;;;;;;;10.88;4.35;;;;;;;;;;5032653;28;20030;-75
2021/07/24 02:16:32;;;;;;;13.82;5.40;;;;;;;;;;5032252;28;20045;-76
2021/07/24 02:18:58;;;;;;;18.30;4.88;;;;;;;;;;5032851;28;20029;-76
2021/07/24 02:21:24;;;;;;;14.00;5.05;;;;;;;;;;5031576;28;20025;-76
2021/07/24 02:23:50;;;;;;;11.32;5.13;;;;;;;;;;5032308;28;20029;-76
2021/07/24 02:26:16;;;;;;;14.18;5.35;;;;;;;;;;5032308;28;20043;-76
2021/07/24 02:28:42;;;;;;;14.50;5.15;;;;;;;;;;5012993;28;20424;-76
2021/07/24 02:31:08;;;;;;;15.82;5.45;;;;;;;;;;5011771;28;20025;-76
2021/07/24 02:33:34;;;;;;;16.33;5.25;;;;;;;;;;5012580;28;20040;-75
2021/07/24 02:36:00;;;;;;;11.68;5.10;;;;;;;;;;5012300;28;20025;-76
2021/07/24 02:38:28;;;;;;;12.13;5.20;;;;;;;;;;4995059;28;20029;-75
2021/07/24 02:40:54;;;;;;;16.55;5.47;;;;;;;;;;4994554;28;20033;-76
2021/07/24 02:43:20;;;;;;;12.68;5.30;;;;;;;;;;4994527;28;20025;-75
2021/07/24 02:45:46;;;;;;;13.75;5.10;;;;;;;;;;5012591;28;20018;-76
2021/07/24 02:48:12;;;;;;;16.05;5.60;;;;;;;;;;4994609;28;20030;-75
2021/07/24 02:50:38;;;;;;;13.93;4.95;;;;;;;;;;5012310;28;20064;-76
2021/07/24 02:53:04;;;;;;;11.60;4.65;;;;;;;;;;5011221;28;20128;-76
2021/07/24 02:55:30;;;;;;;14.40;5.22;;;;;;;;;;5032191;28;20029;-75
2021/07/24 02:57:56;;;;;;;11.45;5.00;;;;;;;;;;5033929;28;20049;-75
2021/07/24 03:00:23;;;;;;;12.38;4.93;;;;;;;;;;5017828;28;20159;-75
2021/07/24 03:02:49;;;;;;;18.75;5.10;;;;;;;;;;5035644;28;20087;-76
2021/07/24 03:05:15;;;;;;;12.15;5.07;;;;;;;;;;5035772;28;20483;-75
2021/07/24 03:07:41;;;;;;;13.73;4.50;;;;;;;;;;5035419;28;20037;-75
2021/07/24 03:10:07;;;;;;;12.93;4.72;;;;;;;;;;5035677;28;20022;-76
2021/07/24 03:12:33;;;;;;;15.07;4.80;;;;;;;;;;5035079;28;20061;-75
2021/07/24 03:15:00;;;;;;;10.82;5.20;;;;;;;;;;5035839;28;20476;-76
2021/07/24 03:17:26;;;;;;;10.20;4.80;;;;;;;;;;5035254;28;20519;-75
2021/07/24 03:19:52;;;;;;;12.75;5.28;;;;;;;;;;5035693;28;20026;-76
2021/07/24 03:22:19;;;;;;;13.20;5.40;;;;;;;;;;5034359;28;20040;-75
2021/07/24 03:24:45;;;;;;;11.73;4.72;;;;;;;;;;5035221;28;20080;-75
2021/07/24 03:27:11;;;;;;;14.02;4.90;;;;;;;;;;5034955;28;20104;-76
2021/07/24 03:29:37;;;;;;;12.43;4.45;;;;;;;;;;5035538;28;20021;-76
2021/07/24 03:32:03;;;;;;;16.88;5.18;;;;;;;;;;5034364;28;20026;-75
2021/07/24 03:34:29;;;;;;;8.85;4.55;;;;;;;;;;5017620;28;20124;-75
2021/07/24 03:36:55;;;;;;;8.05;4.30;;;;;;;;;;5017012;28;20032;-76
2021/07/24 03:39:21;;;;;;;10.40;4.43;;;;;;;;;;5035263;28;20025;-76
2021/07/24 03:41:47;;;;;;;10.27;4.72;;;;;;;;;;5034177;28;20500;-75
2021/07/24 03:44:13;;;;;;;13.65;5.00;;;;;;;;;;5035289;28;20018;-76
2021/07/24 03:46:41;;;;;;;10.00;4.50;;;;;;;;;;5035051;28;20109;-75
2021/07/24 03:49:07;;;;;;;7.75;4.18;;;;;;;;;;5017343;28;20018;-76
2021/07/24 03:51:33;;;;;;;8.88;4.78;;;;;;;;;;5034081;28;20029;-76
2021/07/24 03:53:59;;;;;;;8.98;4.30;;;;;;;;;;5034877;28;20090;-75
2021/07/24 03:56:25;;;;;;;11.20;4.18;;;;;;;;;;5035136;28;20119;-76
2021/07/24 03:58:53;;;;;;;9.82;4.57;;;;;;;;;;5034873;28;20025;-76
2021/07/24 04:01:20;;;;;;;8.52;4.38;;;;;;;;;;5033843;28;20034;-76
2021/07/24 04:03:47;;;;;;;8.48;4.45;;;;;;;;;;5034600;28;20097;-76
2021/07/24 04:06:17;;;;;;;14.40;4.45;;;;;;;;;;5034755;28;20514;-76
2021/07/24 04:08:43;;;;;;;10.60;4.85;;;;;;;;;;5034366;28;20019;-76
2021/07/24 04:11:09;;;;;;;13.05;4.30;;;;;;;;;;5033711;28;20052;-76
2021/07/24 04:13:37;;;;;;;10.23;3.97;;;;;;;;;;5032753;28;20457;-76
2021/07/24 04:16:03;;;;;;;7.80;3.95;;;;;;;;;;5034428;28;20037;-75
2021/07/24 04:18:31;;;;;;;11.20;4.50;;;;;;;;;;5034112;28;20026;-75
2021/07/24 04:20:58;;;;;;;8.82;4.38;;;;;;;;;;5033791;28;20028;-75
2021/07/24 04:23:25;;;;;;;9.95;4.60;;;;;;;;;;5033932;28;20060;-75
2021/07/24 04:25:51;;;;;;;9.82;4.32;;;;;;;;;;5016540;28;20025;-76
2021/07/24 04:28:17;;;;;;;10.40;4.32;;;;;;;;;;5033753;28;20025;-76
2021/07/24 04:30:43;;;;;;;7.00;4.25;;;;;;;;;;5034089;28;20025;-76
2021/07/24 04:33:09;;;;;;;7.13;4.38;;;;;;;;;;5033862;28;20465;-76
2021/07/24 04:35:35;;;;;;;10.70;4.40;;;;;;;;;;5034134;28;20036;-76
2021/07/24 04:38:02;;;;;;;9.07;3.72;;;;;;;;;;5033811;28;20033;-76
2021/07/24 04:40:28;;;;;;;9.88;4.28;;;;;;;;;;5033944;28;20036;-75
2021/07/24 04:42:54;;;;;;;10.23;4.72;;;;;;;;;;5033457;28;20029;-76
2021/07/24 04:45:20;;;;;;;10.45;4.88;;;;;;;;;;5032723;28;20025;-76
2021/07/24 04:47:46;;;;;;;11.00;4.72;;;;;;;;;;5033610;28;20096;-76
2021/07/24 04:50:12;;;;;;;10.85;4.47;;;;;;;;;;5032673;28;20037;-76
2021/07/24 04:52:39;;;;;;;7.45;4.13;;;;;;;;;;5033357;28;20032;-76
2021/07/24 04:55:05;;;;;;;13.57;4.80;;;;;;;;;;5033496;28;20496;-76
2021/07/24 04:57:31;;;;;;;9.93;4.93;;;;;;;;;;5033694;28;20041;-75
2021/07/24 04:59:58;;;;;;;11.43;5.43;;;;;;;;;;5033645;28;20392;-76
2021/07/24 05:02:24;;;;;;;13.10;4.70;;;;;;;;;;5014628;28;20590;-76
2021/07/24 05:04:50;;;;;;;12.20;4.55;;;;;;;;;;5035224;28;20035;-75
2021/07/24 05:07:17;;;;;;;6.65;4.32;;;;;;;;;;5035312;28;20021;-76
2021/07/24 05:09:44;;;;;;;10.75;4.53;;;;;;;;;;5052955;28;20483;-76
2021/07/24 05:12:10;;;;;;;9.50;4.53;;;;;;;;;;5034509;28;20041;-76
2021/07/24 05:14:36;;;;;;;9.68;4.45;;;;;;;;;;5035050;28;20025;-76
2021/07/24 05:17:06;;;;;;;11.00;4.70;;;;;;;;;;5043563;28;20037;-76
2021/07/24 05:19:36;;;;;;;9.25;4.43;;;;;;;;;;5032569;28;20063;-76
2021/07/24 05:22:02;;;;;;;7.70;4.82;;;;;;;;;;5032480;28;20040;-75
2021/07/24 05:24:29;;;;;;;10.50;4.93;;;;;;;;;;5032802;28;20036;-75
2021/07/24 05:26:55;;;;;;;7.50;4.80;;;;;;;;;;5033246;28;20017;-76
2021/07/24 05:29:21;;;;;;;9.07;5.00;;;;;;;;;;5032776;28;20103;-76
2021/07/24 05:31:47;;;;;;;13.93;5.00;;;;;;;;;;5014648;28;20059;-76
2021/07/24 05:34:13;;;;;;;9.88;5.05;;;;;;;;;;5033013;28;20520;-75
2021/07/24 05:36:39;;;;;;;9.98;4.82;;;;;;;;;;5015449;28;20021;-75
2021/07/24 05:39:05;;;;;;;13.20;4.63;;;;;;;;;;5032950;28;20041;-76
2021/07/24 05:41:31;;;;;;;6.97;4.53;;;;;;;;;;5032222;28;20025;-76
2021/07/24 05:43:57;;;;;;;9.70;4.43;;;;;;;;;;5032584;28;20029;-76
2021/07/24 05:46:23;;;;;;;11.75;5.18;;;;;;;;;;5015191;28;20041;-75
2021/07/24 05:48:49;;;;;;;12.95;4.78;;;;;;;;;;5032798;28;20044;-76
2021/07/24 05:51:15;;;;;;;10.27;5.20;;;;;;;;;;5032135;28;20048;-76
2021/07/24 05:53:41;;;;;;;9.07;5.18;;;;;;;;;;5032758;28;20496;-76
2021/07/24 05:56:07;;;;;;;14.93;5.20;;;;;;;;;;5032793;28;20112;-75
2021/07/24 05:58:34;;;;;;;13.25;5.22;;;;;;;;;;5032566;28;20033;-75
2021/07/24 06:01:00;;;;;;;14.63;5.25;;;;;;;;;;5030457;28;20021;-76
2021/07/24 06:03:26;;;;;;;20.35;5.70;;;;;;;;;;5032507;28;20112;-76
2021/07/24 06:05:52;;;;;;;18.65;5.90;;;;;;;;;;5032314;28;20028;-76
2021/07/24 06:08:19;;;;;;;13.20;5.82;;;;;;;;;;5032367;28;20075;-76
2021/07/24 06:10:45;;;;;;;13.00;5.63;;;;;;;;;;5032319;28;20026;-75
2021/07/24 06:13:11;;;;;;;12.32;5.50;;;;;;;;;;5031088;28;20053;-75
2021/07/24 06:15:43;;;;;;;12.32;5.47;;;;;;;;;;5032138;28;20155;-76
2021/07/24 06:18:09;;;;;;;20.85;6.78;;;;;;;;;;5032244;28;20515;-75
2021/07/24 06:20:38;;;;;;;15.00;6.15;;;;;;;;;;5014375;28;20025;-75
2021/07/24 06:23:05;;;;;;;17.33;6.43;;;;;;;;;;5032339;28;20492;-75
2021/07/24 06:25:31;;;;;;;16.25;7.03;;;;;;;;;;5031925;28;20021;-75
2021/07/24 06:27:57;;;;;;;19.45;7.53;;;;;;;;;;5024909;28;20025;-75
2021/07/24 06:30:23;;;;;;;22.67;6.80;;;;;;;;;;5031986;28;20411;-76
2021/07/24 06:32:49;;;;;;;17.15;7.65;;;;;;;;;;5034215;28;20083;-75
2021/07/24 06:35:15;;;;;;;19.05;6.72;;;;;;;;;;5036020;28;20400;-76
2021/07/24 06:37:41;;;;;;;17.55;7.10;;;;;;;;;;5036388;28;20034;-75
2021/07/24 06:40:08;;;;;;;17.83;7.40;;;;;;;;;;5036044;28;20443;-75
2021/07/24 06:42:35;;;;;;;17.27;7.28;;;;;;;;;;5036134;28;20156;-75
2021/07/24 06:45:01;;;;;;;17.52;7.63;;;;;;;;;;5034657;28;20447;-75
2021/07/24 06:47:27;;;;;;;18.80;7.60;;;;;;;;;;5036187;28;20026;-76
2021/07/24 06:49:53;;;;;;;23.42;7.95;;;;;;;;;;5035922;28;20033;-75
2021/07/24 06:52:19;;;;;;;21.25;8.07;;;;;;;;;;5035289;28;20025;-75
2021/07/24 06:54:45;;;;;;;24.13;8.60;;;;;;;;;;5035745;28;20033;-76
2021/07/24 06:57:11;;;;;;;21.80;8.73;;;;;;;;;;5034685;28;20437;-75
2021/07/24 06:59:37;;;;;;;22.13;8.35;;;;;;;;;;5020175;28;20041;-75
2021/07/24 07:02:05;;;;;;;19.23;7.82;;;;;;;;;;5024128;28;20451;-75
2021/07/24 07:04:31;;;;;;;21.48;7.45;;;;;;;;;;5019829;28;20060;-75
2021/07/24 07:06:57;;;;;;;16.63;7.20;;;;;;;;;;5024625;28;20022;-76
2021/07/24 07:09:23;;;;;;;18.45;8.38;;;;;;;;;;5034397;28;20156;-75
2021/07/24 07:11:49;;;;;;;19.48;7.93;;;;;;;;;;5028357;28;20077;-75
2021/07/24 07:14:15;;;;;;;24.27;8.55;;;;;;;;;;5034037;28;20396;-75
2021/07/24 07:16:41;;;;;;;15.20;7.28;;;;;;;;;;5033927;28;20779;-75
2021/07/24 07:19:07;;;;;;;21.05;7.93;;;;;;;;;;5034032;28;20503;-75
2021/07/24 07:21:33;;;;;;;19.70;7.72;;;;;;;;;;5033190;28;20025;-75
2021/07/24 07:23:59;;;;;;;18.35;7.35;;;;;;;;;;5034008;28;20810;-75
2021/07/24 07:26:28;;;;;;;16.25;7.40;;;;;;;;;;5024048;28;20072;-75
2021/07/24 07:28:55;;;;;;;16.65;7.85;;;;;;;;;;5033881;28;20064;-75
2021/07/24 07:31:22;;;;;;;17.35;7.75;;;;;;;;;;5023470;28;20026;-75
2021/07/24 07:33:48;;;;;;;18.98;8.07;;;;;;;;;;5024266;28;20022;-76
2021/07/24 07:36:14;;;;;;;21.90;7.70;;;;;;;;;;5023882;28;20057;-75
2021/07/24 07:38:40;;;;;;;21.85;8.18;;;;;;;;;;5024346;28;20136;-75
2021/07/24 07:41:07;;;;;;;20.80;7.85;;;;;;;;;;5032798;28;20053;-75
2021/07/24 07:43:33;;;;;;;20.77;8.90;;;;;;;;;;5033940;28;20430;-75
2021/07/24 07:45:59;;;;;;;18.58;8.20;;;;;;;;;;5034266;28;20108;-75
2021/07/24 07:48:25;;;;;;;18.15;7.70;;;;;;;;;;5031005;28;20017;-76
2021/07/24 07:50:52;;;;;;;22.38;8.20;;;;;;;;;;5031822;28;20026;-78
2021/07/24 07:53:18;;;;;;;19.77;8.45;;;;;;;;;;5031844;28;20033;-76
2021/07/24 07:55:45;;;;;;;21.40;7.97;;;;;;;;;;5033191;28;20029;-76
2021/07/24 07:58:11;;;;;;;22.13;7.50;;;;;;;;;;5023544;28;20472;-76
2021/07/24 08:00:37;;;;;;;17.73;8.15;;;;;;;;;;5023684;28;20079;-76
2021/07/24 08:03:03;;;;;;;18.92;8.05;;;;;;;;;;5023569;28;20400;-76
2021/07/24 08:05:30;;;;;;;25.08;8.05;;;;;;;;;;5032843;28;20033;-76
2021/07/24 08:07:56;;;;;;;20.92;8.70;;;;;;;;;;5030281;28;20018;-76
2021/07/24 08:10:22;;;;;;;18.00;7.30;;;;;;;;;;5032786;28;20504;-76
2021/07/24 08:12:49;;;;;;;17.23;7.13;;;;;;;;;;5033064;28;20050;-76
2021/07/24 08:15:15;;;;;;;19.58;8.30;;;;;;;;;;5032959;28;20060;-76
2021/07/24 08:17:41;;;;;;;20.63;7.80;;;;;;;;;;5031437;28;20098;-76
2021/07/24 08:20:08;;;;;;;14.15;7.13;;;;;;;;;;5033380;28;20033;-76
2021/07/24 08:22:34;;;;;;;18.83;7.72;;;;;;;;;;5033264;28;20108;-76
2021/07/24 08:25:00;;;;;;;16.35;6.82;;;;;;;;;;5030972;28;20018;-76
2021/07/24 08:27:26;;;;;;;15.45;7.45;;;;;;;;;;5032600;28;20503;-76
2021/07/24 08:29:53;;;;;;;14.90;6.78;;;;;;;;;;5023320;28;20469;-75
2021/07/24 08:32:19;;;;;;;20.88;7.50;;;;;;;;;;5031871;28;20029;-76
2021/07/24 08:34:51;;;;;;;18.45;7.70;;;;;;;;;;5023252;28;20029;-76
2021/07/24 08:37:18;;;;;;;15.85;6.72;;;;;;;;;;5032460;28;20370;-76
2021/07/24 08:39:44;;;;;;;16.08;6.65;;;;;;;;;;5022810;28;20036;-76
2021/07/24 08:42:26;;;;;;;12.93;6.20;;;;;;;;;;5031627;28;20109;-76
2021/07/24 08:44:52;;;;;;;14.88;7.00;;;;;;;;;;5030617;28;20021;-76
2021/07/24 08:47:18;;;;;;;15.73;6.80;;;;;;;;;;5022578;28;20026;-76
2021/07/24 08:49:44;;;;;;;18.55;6.82;;;;;;;;;;5030528;28;20022;-76
2021/07/24 08:52:12;;;;;;;17.90;7.10;;;;;;;;;;5018874;28;20033;-76
2021/07/24 08:54:42;;;;;;;15.00;6.97;;;;;;;;;;5021831;28;20053;-76
2021/07/24 08:57:08;;;;;;;13.55;6.53;;;;;;;;;;5029437;28;20048;-76
2021/07/24 08:59:35;;;;;;;13.15;6.85;;;;;;;;;;5032338;28;20031;-76
2021/07/24 09:02:02;;;;;;;13.88;6.25;;;;;;;;;;5031165;28;20396;-76
2021/07/24 09:04:31;;;;;;;14.68;6.68;;;;;;;;;;5032039;28;20113;-76
2021/07/24 09:07:03;;;;;;;16.95;7.05;;;;;;;;;;5022082;28;20045;-77
2021/07/24 09:09:29;;;;;;;17.05;6.72;;;;;;;;;;5029674;28;20515;-76
2021/07/24 09:11:55;;;;;;;15.18;6.68;;;;;;;;;;5033812;28;20061;-76
2021/07/24 09:14:21;;;;;;;13.63;6.63;;;;;;;;;;5040773;28;20033;-77
2021/07/24 09:16:50;;;;;;;13.50;6.22;;;;;;;;;;5020605;28;20024;-76
2021/07/24 09:19:17;;;;;;;16.92;6.35;;;;;;;;;;5024392;28;20029;-76
2021/07/24 09:21:43;;;;;;;17.65;7.28;;;;;;;;;;5039701;28;20022;-77
2021/07/24 09:24:19;;;;;;;15.85;6.82;;;;;;;;;;5042236;28;20025;-76
2021/07/24 09:26:45;;;;;;;14.95;6.88;;;;;;;;;;5022906;28;20021;-76
2021/07/24 09:29:16;;;;;;;17.35;6.95;;;;;;;;;;5042019;28;20025;-76
2021/07/24 09:31:43;;;;;;;16.13;6.97;;;;;;;;;;5041742;28;20022;-76
2021/07/24 09:34:10;;;;;;;18.50;6.80;;;;;;;;;;5037584;28;20033;-76
2021/07/24 09:36:36;;;;;;;17.30;7.20;;;;;;;;;;5042860;28;20041;-76
2021/07/24 09:39:18;;;;;;;15.77;7.22;;;;;;;;;;5040300;28;20714;-76
2021/07/24 09:41:48;;;;;;;16.55;6.80;;;;;;;;;;5040928;28;20024;-77
2021/07/24 09:44:28;;;;;;;17.75;7.20;;;;;;;;;;5026198;28;20018;-76
2021/07/24 09:46:58;;;;;;;18.75;7.40;;;;;;;;;;5011488;28;20421;-76
2021/07/24 09:49:37;;;;;;;18.02;7.88;;;;;;;;;;5011455;28;20104;-76
2021/07/24 09:52:12;;;;;;;21.60;7.68;;;;;;;;;;5028279;28;20457;-77
2021/07/24 09:54:38;;;;;;;19.77;7.90;;;;;;;;;;5052088;28;20021;-76
2021/07/24 09:57:05;;;;;;;19.55;7.70;;;;;;;;;;5051446;28;20492;-76
2021/07/24 09:59:31;;;;;;;22.20;7.90;;;;;;;;;;5052873;28;20610;-76
2021/07/24 10:01:58;;;;;;;19.52;8.13;;;;;;;;;;5033693;28;20040;-76
2021/07/24 10:04:26;;;;;;;15.95;8.13;;;;;;;;;;5052900;28;20484;-77
2021/07/24 10:06:55;;;;;;;21.13;8.18;;;;;;;;;;5052088;28;20106;-76
2021/07/24 10:09:25;;;;;;;22.13;8.20;;;;;;;;;;5052230;28;20023;-77
2021/07/24 10:11:53;;;;;;;16.45;7.63;;;;;;;;;;5050573;28;20052;-76
2021/07/24 10:14:19;;;;;;;16.42;7.47;;;;;;;;;;5052446;28;20504;-76
2021/07/24 10:16:45;;;;;;;20.88;7.85;;;;;;;;;;5045104;28;20026;-76
2021/07/24 10:19:12;;;;;;;14.85;7.65;;;;;;;;;;5032010;28;20033;-76
2021/07/24 10:21:38;;;;;;;17.60;8.18;;;;;;;;;;5031481;28;20033;-76
2021/07/24 10:24:05;;;;;;;15.55;7.03;;;;;;;;;;5032265;28;20113;-76
2021/07/24 10:26:33;;;;;;;17.17;8.45;;;;;;;;;;5034484;28;20440;-76
2021/07/24 10:29:01;;;;;;;18.52;7.57;;;;;;;;;;5034198;28;20582;-77
2021/07/24 10:31:31;;;;;;;16.00;7.53;;;;;;;;;;5051499;28;20116;-76
2021/07/24 10:33:59;;;;;;;18.77;8.18;;;;;;;;;;5034476;28;20079;-76
2021/07/24 10:36:33;;;;;;;18.45;7.95;;;;;;;;;;5034278;28;20062;-76
2021/07/24 10:39:19;;;;;;;15.68;7.78;;;;;;;;;;5051886;28;20026;-76
2021/07/24 10:41:46;;;;;;;21.17;8.07;;;;;;;;;;5051495;28;20499;-76
2021/07/24 10:44:16;;;;;;;15.43;7.95;;;;;;;;;;5051804;28;20048;-76
2021/07/24 10:46:45;;;;;;;15.80;8.05;;;;;;;;;;5034264;28;20072;-76
2021/07/24 10:49:23;;;;;;;18.50;7.95;;;;;;;;;;5051715;28;20017;-76
2021/07/24 10:51:55;;;;;;;17.83;7.45;;;;;;;;;;5044708;28;20061;-76
2021/07/24 10:54:21;;;;;;;15.23;8.30;;;;;;;;;;5014202;28;20021;-76
2021/07/24 10:56:47;;;;;;;17.00;8.25;;;;;;;;;;5031908;28;20056;-76
2021/07/24 10:59:13;;;;;;;14.18;7.57;;;;;;;;;;5031632;28;20432;-76
2021/07/24 11:01:45;;;;;;;17.65;8.80;;;;;;;;;;5013527;28;20175;-76
2021/07/24 11:04:30;;;;;;;18.65;8.93;;;;;;;;;;5031780;28;20017;-76
2021/07/24 11:07:15;;;;;;;19.67;9.02;;;;;;;;;;5013981;28;20125;-76
2021/07/24 11:09:41;;;;;;;19.67;8.70;;;;;;;;;;5032085;28;20436;-76
2021/07/24 11:12:09;;;;;;;16.10;8.55;;;;;;;;;;5031075;28;20049;-76
2021/07/24 11:14:35;;;;;;;19.30;8.75;;;;;;;;;;5031914;28;20049;-76
2021/07/24 11:17:07;;;;;;;15.13;8.50;;;;;;;;;;5019915;28;20524;-76
2021/07/24 11:19:33;;;;;;;16.65;7.65;;;;;;;;;;5033211;28;20029;-76
2021/07/24 11:22:08;;;;;;;17.38;7.88;;;;;;;;;;5035030;28;20029;-76
2021/07/24 11:24:34;;;;;;;17.27;7.70;;;;;;;;;;5033895;28;20025;-76
2021/07/24 11:27:00;;;;;;;13.05;7.85;;;;;;;;;;5035697;28;20602;-76
2021/07/24 11:29:26;;;;;;;17.60;8.38;;;;;;;;;;5035215;28;20033;-76
2021/07/24 11:31:52;;;;;;;18.20;8.00;;;;;;;;;;5034597;28;20033;-76
2021/07/24 11:34:22;;;;;;;14.00;7.65;;;;;;;;;;5034928;28;20029;-76
2021/07/24 11:36:51;;;;;;;14.35;7.38;;;;;;;;;;5035160;28;20484;-77
2021/07/24 11:39:23;;;;;;;16.55;7.13;;;;;;;;;;5034794;28;20025;-76
2021/07/24 11:41:49;;;;;;;18.27;7.60;;;;;;;;;;5034691;28;20025;-76
2021/07/24 11:44:25;;;;;;;13.20;7.35;;;;;;;;;;5016965;28;20561;-76
2021/07/24 11:46:55;;;;;;;16.35;7.32;;;;;;;;;;5017153;28;20075;-76
2021/07/24 11:49:21;;;;;;;11.15;6.75;;;;;;;;;;5034752;28;20028;-76
2021/07/24 11:51:48;;;;;;;17.92;7.57;;;;;;;;;;5034333;28;20030;-76
2021/07/24 11:54:14;;;;;;;16.40;7.32;;;;;;;;;;5034683;28;20029;-76
2021/07/24 11:56:40;;;;;;;13.90;7.43;;;;;;;;;;5034898;28;20030;-76
2021/07/24 11:59:07;;;;;;;15.90;7.57;;;;;;;;;;5034633;28;20025;-76
2021/07/24 12:01:33;;;;;;;16.17;7.60;;;;;;;;;;5034114;28;20124;-76
2021/07/24 12:04:06;;;;;;;18.35;7.13;;;;;;;;;;5034954;28;20511;-76
2021/07/24 12:06:32;;;;;;;;;;;;;;;;;;5035368;28;20033;-76
2021/07/24 12:08:58;;;;;;;13.57;7.30;;;;;;;;;;5034435;28;19905;-76
2021/07/24 12:11:25;;;;;;;14.45;6.95;;;;;;;;;;5035468;28;20030;-76
2021/07/24 12:14:01;;;;;;;14.30;7.28;;;;;;;;;;5054390;28;20033;-76
2021/07/24 12:16:35;;;;;;;18.00;8.52;;;;;;;;;;5049939;28;20091;-76
2021/07/24 12:19:10;;;;;;;13.90;6.85;;;;;;;;;;5034409;28;20104;-76
2021/07/24 12:21:36;;;;;;;16.08;7.00;;;;;;;;;;5015885;28;20484;-76
2021/07/24 12:24:03;;;;;;;13.15;7.43;;;;;;;;;;5016347;28;20048;-76
2021/07/24 12:26:34;;;;;;;17.33;7.68;;;;;;;;;;5036163;28;20017;-76
2021/07/24 12:29:20;;;;;;;18.20;7.53;;;;;;;;;;5053689;28;20025;-76
2021/07/24 12:31:57;;;;;;;11.80;7.00;;;;;;;;;;5052688;28;20380;-76
2021/07/24 12:34:26;;;;;;;15.02;7.50;;;;;;;;;;5053944;28;20025;-76
2021/07/24 12:36:59;;;;;;;16.27;7.32;;;;;;;;;;5053926;28;20029;-76
2021/07/24 12:39:26;;;;;;;16.55;7.38;;;;;;;;;;5053749;28;20483;-76
2021/07/24 12:42:02;;;;;;;15.73;8.10;;;;;;;;;;5053420;28;20029;-76
2021/07/24 12:44:28;;;;;;;19.65;7.55;;;;;;;;;;5035739;28;20035;-77
2021/07/24 12:47:24;;;;;;;16.80;7.65;;;;;;;;;;5036085;28;20071;-76
2021/07/24 12:49:51;;;;;;;14.70;7.80;;;;;;;;;;5036488;28;20033;-76
2021/07/24 12:52:27;;;;;;;23.02;7.55;;;;;;;;;;5024349;28;20029;-76
2021/07/24 12:55:02;;;;;;;11.38;6.95;;;;;;;;;;5033621;28;20037;-76
2021/07/24 12:57:29;;;;;;;12.35;7.28;;;;;;;;;;5033565;28;20025;-76
2021/07/24 12:59:55;;;;;;;16.60;7.10;;;;;;;;;;5033647;28;20480;-76
2021/07/24 13:02:21;;;;;;;16.13;7.28;;;;;;;;;;5015143;28;20025;-76
2021/07/24 13:04:52;;;;;;;17.00;7.50;;;;;;;;;;5033341;28;20025;-77
2021/07/24 13:07:18;;;;;;;16.83;7.15;;;;;;;;;;5015378;28;20124;-76
2021/07/24 13:09:45;;;;;;;15.38;7.72;;;;;;;;;;5033393;28;20048;-76
2021/07/24 13:12:11;;;;;;;13.80;7.15;;;;;;;;;;5032526;28;20048;-76
2021/07/24 13:14:37;;;;;;;16.13;7.97;;;;;;;;;;5033246;28;20072;-76
2021/07/24 13:17:04;;;;;;;12.60;6.93;;;;;;;;;;5033243;28;20025;-76
2021/07/24 13:19:30;;;;;;;17.88;8.00;;;;;;;;;;5033411;28;20034;-76
2021/07/24 13:21:57;;;;;;;12.45;7.05;;;;;;;;;;5031377;28;20411;-76
2021/07/24 13:24:23;;;;;;;19.33;7.90;;;;;;;;;;5032897;28;20475;-77
2021/07/24 13:29:42;;;;;;;16.35;7.95;;;;;;;;;;5002258;28;20041;-76
2021/07/24 13:32:08;;;;;;;18.02;7.20;;;;;;;;;;5032312;28;20036;-76
2021/07/24 13:34:37;;;;;;;15.98;6.88;;;;;;;;;;5032937;28;20061;-76
2021/07/24 13:37:03;;;;;;;13.70;7.43;;;;;;;;;;5033014;28;20029;-76
2021/07/24 13:39:30;;;;;;;13.48;7.68;;;;;;;;;;5015354;28;20519;-76
2021/07/24 13:41:56;;;;;;;15.18;7.40;;;;;;;;;;5031661;28;20033;-76
2021/07/24 13:44:23;;;;;;;16.75;7.25;;;;;;;;;;5033026;28;20084;-76
2021/07/24 13:46:49;;;;;;;12.63;6.63;;;;;;;;;;5032742;28;20400;-76
2021/07/24 13:49:15;;;;;;;16.90;7.85;;;;;;;;;;5014777;28;20025;-76
2021/07/24 13:51:43;;;;;;;17.58;6.70;;;;;;;;;;5016535;28;20021;-76
2021/07/24 13:54:09;;;;;;;15.48;7.97;;;;;;;;;;5031417;28;20407;-76
2021/07/24 13:56:36;;;;;;;11.18;6.85;;;;;;;;;;5032648;28;20392;-76
2021/07/24 13:59:02;;;;;;;10.93;6.68;;;;;;;;;;5033051;28;20064;-76
2021/07/24 14:01:28;;;;;;;16.15;6.88;;;;;;;;;;5031805;28;20034;-76
2021/07/24 14:03:54;;;;;;;14.05;7.45;;;;;;;;;;5031469;28;20124;-76
2021/07/24 14:06:20;;;;;;;12.32;6.95;;;;;;;;;;5032200;28;20029;-76
2021/07/24 14:08:47;;;;;;;14.23;6.07;;;;;;;;;;5031187;28;20515;-76
2021/07/24 14:11:17;;;;;;;14.32;6.72;;;;;;;;;;5031642;28;20036;-76
2021/07/24 14:13:43;;;;;;;12.38;6.75;;;;;;;;;;5051211;28;20056;-76
2021/07/24 14:16:15;;;;;;;14.23;7.03;;;;;;;;;;5050309;28;20045;-76
2021/07/24 14:18:42;;;;;;;12.45;6.45;;;;;;;;;;5032730;28;20036;-76
2021/07/24 14:21:08;;;;;;;14.27;6.90;;;;;;;;;;5031444;28;20030;-76
2021/07/24 14:23:34;;;;;;;13.02;7.63;;;;;;;;;;5032572;28;20028;-76
2021/07/24 14:26:03;;;;;;;11.10;6.93;;;;;;;;;;5032167;28;20022;-76
2021/07/24 14:28:30;;;;;;;14.38;7.03;;;;;;;;;;5032593;28;20028;-76
2021/07/24 14:30:56;;;;;;;12.35;7.10;;;;;;;;;;5052287;28;20487;-76
2021/07/24 14:33:22;;;;;;;16.13;7.22;;;;;;;;;;5034236;28;20064;-76
2021/07/24 14:35:48;;;;;;;10.32;6.65;;;;;;;;;;5051929;28;20025;-76
2021/07/24 14:38:14;;;;;;;11.68;6.50;;;;;;;;;;5052303;28;20454;-76
2021/07/24 14:40:40;;;;;;;11.40;6.85;;;;;;;;;;5034070;28;20098;-76